VIDP

Delhi/Indira Gandhi International (IGI) Airport

Airport
ICAO code
VIDP
IATA Code
DEL
Summary
ICAO Region
APAC
ICAO Territory
Location

Palam, National Capitol Region of Delhi

Serving
New Delhi
Elevation
777 ft
Coordinates
28° 33' 30" N , 77° 5' 38" E
KCC
Cwa
Airport BS
Bird Strike
Airport LOS
Parallel Runway Operation
Airport WX
Fog
Metar
Observation
VIDP 152130Z 04005KT 3500 BR SCT030 BKN100 29/28 Q1002 NOSIG
Station
New Delhi / Palam
Date/Time
2022-08-15 21:30:00
Wind direction
40°
Wind speed
05 kts
Lowest cloud amount
scattered clouds
Temperature
29°C
Dew point
28°C
Humidity
94%
QNH
1002 hPa
Weather condition
n/a

International airport serving the city of New Delhi.

Climatology

Humid “subtropical” climate (Köppen climate classification Cwa) - characterized by hot, humid summers and cool winters.

Overnight radiation fog in winter is a well-recognised problem.

SKYbrary Partners:

Safety knowledge contributed by: